Time;durP1;ratioP1;P1;durP2;ratioP2;P2;SDS_P1;SDS_P2;PMS_P1;PMS_P2;Temp;Humidity;BMP_temperature;BMP_pressure;BME280_temperature;BME280_humidity;BME280_pressure;Samples;Min_cycle;Max_cycle;Signal;HPM_P1;HPM_P2
2022/09/19 00:00:53;;;;;;;18.73;3.20;;;14.80;99.90;;;;;;5031218;28;20072;-61
2022/09/19 00:03:19;;;;;;;20.25;2.33;;;14.90;99.90;;;;;;5035196;28;20604;-61
2022/09/19 00:05:44;;;;;;;14.23;2.60;;;14.80;99.90;;;;;;5035175;28;20045;-61
2022/09/19 00:08:10;;;;;;;14.05;2.25;;;15.00;99.90;;;;;;5034814;28;20044;-61
2022/09/19 00:10:42;;;;;;;17.77;3.03;;;15.20;99.90;;;;;;5034365;28;20054;-61
2022/09/19 00:13:08;;;;;;;18.17;2.72;;;14.80;99.90;;;;;;5034444;28;20046;-61
2022/09/19 00:15:46;;;;;;;11.73;2.60;;;14.80;99.90;;;;;;5034208;28;20034;-61
2022/09/19 00:18:12;;;;;;;17.13;3.03;;;15.00;99.90;;;;;;5034720;28;20525;-61
2022/09/19 00:20:43;;;;;;;17.65;2.50;;;14.80;99.90;;;;;;5034484;28;20057;-61
2022/09/19 00:26:08;;;;;;;20.15;3.47;;;14.80;99.90;;;;;;5048897;28;20422;-61
2022/09/19 00:28:34;;;;;;;19.33;2.80;;;14.80;99.90;;;;;;5033043;28;20137;-61
2022/09/19 00:31:01;;;;;;;14.40;2.60;;;15.30;99.90;;;;;;5034010;28;20049;-61
2022/09/19 00:33:30;;;;;;;17.05;3.00;;;14.90;99.90;;;;;;5034532;28;20041;-61
2022/09/19 00:35:56;;;;;;;14.68;2.40;;;15.20;99.90;;;;;;5034113;28;20491;-61
2022/09/19 00:38:23;;;;;;;18.65;3.13;;;15.20;99.90;;;;;;5034072;28;20056;-61
2022/09/19 00:40:49;;;;;;;17.55;2.88;;;15.10;99.90;;;;;;5034199;28;20545;-61
2022/09/19 00:43:18;;;;;;;19.67;3.03;;;15.00;99.90;;;;;;5034447;28;20045;-61
2022/09/19 00:45:44;;;;;;;17.73;2.85;;;14.90;99.90;;;;;;5033583;28;20038;-61
2022/09/19 00:48:13;;;;;;;15.98;2.65;;;15.00;99.90;;;;;;5034051;28;20041;-61
2022/09/19 00:50:40;;;;;;;21.13;2.67;;;15.30;99.90;;;;;;5032806;28;20080;-61
2022/09/19 00:53:16;;;;;;;17.50;2.88;;;14.90;99.90;;;;;;5033731;28;20045;-61
2022/09/19 00:55:42;;;;;;;13.27;2.88;;;15.30;99.90;;;;;;5033877;28;20041;-61
2022/09/19 00:58:25;;;;;;;21.33;3.25;;;15.00;99.90;;;;;;5029224;28;20048;-61
2022/09/19 01:00:51;;;;;;;11.57;2.65;;;15.40;99.90;;;;;;5033401;28;20034;-61
2022/09/19 01:03:17;;;;;;;14.18;2.65;;;15.40;99.90;;;;;;5034180;28;20116;-61
2022/09/19 01:06:01;;;;;;;16.63;2.88;;;15.20;99.90;;;;;;5033673;28;20379;-61
2022/09/19 01:08:50;;;;;;;16.30;2.72;;;13.80;99.90;;;;;;5033586;28;20491;-61
2022/09/19 01:11:36;;;;;;;15.55;2.78;;;15.20;99.90;;;;;;5033413;28;20187;-61
2022/09/19 01:14:30;;;;;;;19.95;2.63;;;15.30;99.90;;;;;;5032522;28;20049;-61
2022/09/19 01:17:08;;;;;;;12.05;2.42;;;15.40;99.90;;;;;;5033297;28;20507;-61
2022/09/19 01:20:06;;;;;;;12.20;2.30;;;15.40;99.90;;;;;;5033258;28;20054;-61
2022/09/19 01:22:45;;;;;;;13.00;2.85;;;15.10;99.90;;;;;;4995261;28;20111;-61
2022/09/19 01:25:31;;;;;;;17.02;2.80;;;15.20;99.90;;;;;;5033298;28;20415;-61
2022/09/19 01:28:20;;;;;;;14.73;2.63;;;15.40;99.90;;;;;;5033176;28;20120;-61
2022/09/19 01:31:18;;;;;;;11.73;3.00;;;15.50;99.90;;;;;;5041439;28;20053;-61
2022/09/19 01:34:13;;;;;;;23.25;2.88;;;15.20;99.90;;;;;;5013666;28;20464;-61
2022/09/19 01:36:44;;;;;;;20.23;3.60;;;15.30;99.90;;;;;;5026900;28;20513;-61
2022/09/19 01:39:11;;;;;;;22.73;3.60;;;15.40;99.90;;;;;;4999709;28;20395;-61
2022/09/19 01:41:37;;;;;;;17.05;2.85;;;15.20;99.90;;;;;;5013437;28;20092;-61
2022/09/19 01:44:08;;;;;;;20.45;3.13;;;15.20;99.90;;;;;;5013578;28;20435;-61
2022/09/19 01:46:37;;;;;;;20.90;3.10;;;15.50;99.90;;;;;;5023835;28;20045;-61
2022/09/19 01:49:12;;;;;;;23.50;3.00;;;15.10;99.90;;;;;;5032912;28;20038;-61
2022/09/19 01:51:45;;;;;;;12.57;2.20;;;15.20;99.90;;;;;;5032256;28;20038;-61
2022/09/19 01:54:35;;;;;;;18.17;3.30;;;15.90;99.90;;;;;;5032935;28;20057;-62
2022/09/19 01:57:03;;;;;;;15.23;2.60;;;15.40;99.90;;;;;;5014610;28;20045;-61
2022/09/19 02:00:01;;;;;;;14.18;2.70;;;15.10;99.90;;;;;;5032162;28;20061;-61
2022/09/19 02:02:46;;;;;;;15.77;2.63;;;15.00;99.90;;;;;;5032920;28;20071;-61
2022/09/19 02:05:51;;;;;;;16.90;2.80;;;15.40;99.90;;;;;;5031725;28;20041;-61
2022/09/19 02:08:28;;;;;;;18.63;2.88;;;15.40;99.90;;;;;;5032188;28;20103;-61
2022/09/19 02:11:18;;;;;;;11.63;2.20;;;15.20;99.90;;;;;;5031867;28;20136;-61
2022/09/19 02:13:49;;;;;;;12.38;2.28;;;15.40;99.90;;;;;;5023483;28;20422;-62
2022/09/19 02:16:31;;;;;;;15.75;2.42;;;15.00;99.90;;;;;;5032408;28;20384;-61
2022/09/19 02:19:06;;;;;;;13.07;2.83;;;15.20;99.90;;;;;;5032278;28;20041;-61
2022/09/19 02:21:41;;;;;;;11.87;2.80;;;14.90;99.90;;;;;;5032418;28;20120;-61
2022/09/19 02:24:13;;;;;;;15.68;3.22;;;14.90;99.90;;;;;;5014578;28;20630;-61
2022/09/19 02:26:41;;;;;;;11.80;2.53;;;15.80;99.90;;;;;;5031834;28;20123;-61
2022/09/19 02:29:12;;;;;;;19.90;2.80;;;14.90;99.90;;;;;;5027226;28;20151;-61
2022/09/19 02:31:38;;;;;;;15.10;2.83;;;15.00;99.90;;;;;;5031889;28;20494;-61
2022/09/19 02:34:06;;;;;;;16.27;2.53;;;15.20;99.90;;;;;;5032210;28;20037;-61
2022/09/19 02:36:47;;;;;;;11.32;2.55;;;15.00;99.90;;;;;;5031983;28;20542;-60
2022/09/19 02:39:26;;;;;;;16.05;2.63;;;15.30;51.60;;;;;;5031633;28;20499;-61
2022/09/19 02:42:22;;;;;;;13.55;2.45;;;15.20;1.00;;;;;;5031582;28;20041;-61
2022/09/19 02:45:12;;;;;;;14.23;2.50;;;14.90;1.00;;;;;;5031697;28;20037;-61
2022/09/19 02:48:09;;;;;;;13.32;2.50;;;14.90;1.00;;;;;;5025509;28;20041;-61
2022/09/19 02:50:47;;;;;;;15.13;2.60;;;15.00;75.00;;;;;;5031927;28;20113;-62
2022/09/19 02:53:18;;;;;;;14.02;2.60;;;15.30;99.90;;;;;;5031919;28;20507;-61
2022/09/19 02:55:49;;;;;;;17.55;3.10;;;14.90;99.90;;;;;;5031869;28;20052;-61
2022/09/19 02:58:16;;;;;;;19.13;2.95;;;15.10;99.90;;;;;;4999980;28;20044;-61
2022/09/19 03:00:50;;;;;;;17.05;2.78;;;15.00;99.90;;;;;;5015101;28;20056;-61
2022/09/19 03:06:38;;;;;;;18.00;3.10;;;14.80;99.90;;;;;;5031455;28;20111;-61
2022/09/19 03:09:06;;;;;;;18.27;3.33;;;15.00;99.90;;;;;;5031518;28;20061;-61
2022/09/19 03:11:35;;;;;;;17.38;2.78;;;14.90;99.90;;;;;;5031072;28;20068;-61
2022/09/19 03:14:01;;;;;;;23.23;3.47;;;15.10;99.90;;;;;;5031534;28;20414;-61
2022/09/19 03:16:34;;;;;;;11.85;2.70;;;15.00;99.90;;;;;;5030706;28;20116;-61
2022/09/19 03:19:02;;;;;;;16.05;2.88;;;15.20;99.90;;;;;;5031544;28;20503;-61
2022/09/19 03:21:27;;;;;;;15.75;2.97;;;14.90;99.90;;;;;;5030947;28;20108;-61
2022/09/19 03:23:58;;;;;;;17.50;2.92;;;15.20;99.90;;;;;;5031515;28;20041;-61
2022/09/19 03:26:27;;;;;;;16.15;2.88;;;15.00;99.90;;;;;;5030959;28;20045;-61
2022/09/19 03:28:54;;;;;;;17.70;2.80;;;15.00;99.90;;;;;;5031234;28;20053;-61
2022/09/19 03:31:21;;;;;;;15.30;3.20;;;15.30;99.90;;;;;;5030725;28;20474;-61
2022/09/19 03:33:48;;;;;;;17.20;3.00;;;15.50;99.90;;;;;;5030914;28;20095;-61
2022/09/19 03:36:14;;;;;;;22.48;3.20;;;15.10;99.90;;;;;;5030317;28;20037;-61
2022/09/19 03:38:44;;;;;;;11.68;2.45;;;15.50;99.90;;;;;;5031441;28;20090;-61
2022/09/19 03:41:12;;;;;;;16.73;2.97;;;15.60;99.90;;;;;;5030865;28;20398;-61
2022/09/19 03:43:37;;;;;;;16.80;3.10;;;15.10;99.90;;;;;;5042215;28;20474;-61
2022/09/19 03:46:03;;;;;;;15.27;2.63;;;15.10;99.90;;;;;;5044082;28;20065;-61
2022/09/19 03:48:32;;;;;;;16.63;3.03;;;14.90;99.90;;;;;;5031025;28;20040;-62
2022/09/19 03:51:00;;;;;;;18.08;2.53;;;15.00;99.90;;;;;;5030975;28;20103;-61
2022/09/19 03:53:27;;;;;;;14.95;2.75;;;14.90;99.90;;;;;;5013377;28;20049;-61
2022/09/19 03:55:54;;;;;;;11.75;2.72;;;15.20;99.90;;;;;;5030980;28;20041;-61
2022/09/19 03:58:20;;;;;;;12.43;2.67;;;15.20;99.90;;;;;;5016246;28;20045;-61
2022/09/19 04:00:46;;;;;;;15.18;2.22;;;15.20;99.90;;;;;;5023943;28;20033;-61
2022/09/19 04:03:11;;;;;;;17.73;2.45;;;15.00;99.90;;;;;;5030706;28;20048;-61
2022/09/19 04:05:37;;;;;;;12.77;2.20;;;15.00;99.90;;;;;;5031016;28;20250;-61
2022/09/19 04:08:03;;;;;;;15.48;2.78;;;15.20;1.00;;;;;;5030833;28;20499;-61
2022/09/19 04:10:29;;;;;;;20.83;2.40;;;15.20;99.90;;;;;;5030479;28;20535;-61
2022/09/19 04:12:56;;;;;;;14.35;2.45;;;14.80;1.00;;;;;;5031370;28;20042;-61
2022/09/19 04:15:21;;;;;;;13.57;2.63;;;14.90;99.90;;;;;;5029345;28;20121;-61
2022/09/19 04:17:47;;;;;;;17.52;3.13;;;14.90;99.90;;;;;;5029471;28;20137;-61
2022/09/19 04:20:13;;;;;;;11.73;2.05;;;14.80;99.90;;;;;;5030164;28;20047;-61
2022/09/19 04:22:38;;;;;;;7.18;2.28;;;15.50;1.00;;;;;;5030812;28;20041;-61
2022/09/19 04:25:06;;;;;;;16.90;2.58;;;14.80;99.90;;;;;;5030775;28;20537;-61
2022/09/19 04:27:31;;;;;;;22.33;3.00;;;15.00;99.90;;;;;;5030495;28;20050;-61
2022/09/19 04:29:59;;;;;;;13.52;2.65;;;14.90;99.90;;;;;;5030632;28;20380;-61
2022/09/19 04:32:24;;;;;;;14.88;2.42;;;14.70;99.90;;;;;;5030378;28;20103;-61
2022/09/19 04:34:50;;;;;;;17.05;3.28;;;14.70;1.00;;;;;;5030636;28;20041;-61
2022/09/19 04:37:15;;;;;;;15.95;2.75;;;14.80;73.00;;;;;;5030515;28;20529;-61
2022/09/19 04:39:41;;;;;;;15.40;2.95;;;15.00;99.90;;;;;;5030722;28;20430;-61
2022/09/19 04:42:07;;;;;;;12.02;3.70;;;14.80;1.00;;;;;;5030491;28;20034;-61
2022/09/19 04:44:33;;;;;;;19.92;3.72;;;15.30;1.00;;;;;;5030685;28;20081;-61
2022/09/19 04:46:59;;;;;;;15.63;2.53;;;14.70;1.00;;;;;;5013365;28;20518;-61
2022/09/19 04:49:34;;;;;;;16.55;2.58;;;14.70;99.90;;;;;;5033837;28;20045;-61
2022/09/19 04:52:00;;;;;;;12.13;2.47;;;14.80;1.00;;;;;;5033752;28;20048;-61
2022/09/19 04:54:26;;;;;;;18.15;2.53;;;15.00;99.90;;;;;;5034169;28;20116;-61
2022/09/19 04:56:51;;;;;;;12.43;3.17;;;15.00;99.90;;;;;;5013866;28;20164;-61
2022/09/19 04:59:17;;;;;;;13.48;2.28;;;15.00;65.20;;;;;;5033753;28;20037;-61
2022/09/19 05:01:44;;;;;;;15.88;2.50;;;14.80;99.90;;;;;;5033485;28;20507;-61
2022/09/19 05:04:10;;;;;;;16.50;2.10;;;14.90;99.90;;;;;;5034185;28;20139;-61
2022/09/19 05:06:36;;;;;;;21.67;2.88;;;14.80;99.90;;;;;;5033006;28;20524;-61
2022/09/19 05:09:02;;;;;;;16.63;3.20;;;15.00;99.90;;;;;;5033202;28;20049;-61
2022/09/19 05:11:28;;;;;;;15.25;2.78;;;15.10;99.90;;;;;;5033008;28;20091;-62
2022/09/19 05:13:54;;;;;;;15.65;3.00;;;14.90;99.90;;;;;;5033435;28;20427;-61
2022/09/19 05:16:20;;;;;;;15.02;2.75;;;14.70;99.90;;;;;;5033334;28;20395;-61
2022/09/19 05:18:46;;;;;;;12.13;2.83;;;14.90;99.90;;;;;;5033487;28;20041;-61
2022/09/19 05:21:14;;;;;;;17.70;2.85;;;14.60;99.90;;;;;;5033354;28;20116;-61
2022/09/19 05:23:40;;;;;;;18.40;2.63;;;14.80;99.90;;;;;;5033272;28;20044;-61
2022/09/19 05:26:09;;;;;;;16.50;2.50;;;14.80;99.90;;;;;;5033301;28;20373;-61
2022/09/19 05:28:36;;;;;;;16.33;3.35;;;14.80;1.00;;;;;;5033275;28;20041;-61
2022/09/19 05:31:05;;;;;;;12.38;2.60;;;14.80;1.00;;;;;;5032992;28;20087;-60
2022/09/19 05:33:32;;;;;;;17.70;2.88;;;14.70;1.00;;;;;;5033519;28;20049;-61
2022/09/19 05:36:00;;;;;;;14.02;2.33;;;14.60;99.90;;;;;;5015701;28;20643;-60
2022/09/19 05:38:30;;;;;;;11.38;2.25;;;14.40;99.90;;;;;;5032922;28;20040;-61
2022/09/19 05:40:59;;;;;;;12.18;2.10;;;14.60;1.00;;;;;;5033029;28;20534;-61
2022/09/19 05:43:25;;;;;;;16.92;2.50;;;14.60;99.90;;;;;;5033318;28;20077;-61
2022/09/19 05:45:52;;;;;;;11.65;2.35;;;14.60;67.70;;;;;;5032960;28;20082;-61
2022/09/19 05:48:19;;;;;;;9.73;2.00;;;14.70;1.00;;;;;;5032980;28;20037;-61
2022/09/19 05:50:46;;;;;;;11.18;2.25;;;14.60;99.90;;;;;;5033315;28;20098;-61
2022/09/19 05:55:57;;;;;;;11.75;1.88;;;14.90;1.00;;;;;;5032417;28;20040;-61
2022/09/19 05:58:24;;;;;;;7.65;1.98;;;14.90;99.90;;;;;;5026884;28;20041;-61
2022/09/19 06:00:50;;;;;;;9.98;1.98;;;14.80;99.90;;;;;;5032430;28;20041;-61
2022/09/19 06:03:16;;;;;;;18.55;2.45;;;14.80;99.90;;;;;;5033039;28;20053;-61
2022/09/19 06:05:45;;;;;;;12.45;2.38;;;14.80;99.90;;;;;;5032731;28;20038;-61
2022/09/19 06:08:11;;;;;;;20.50;2.38;;;14.90;1.00;;;;;;5014480;28;20048;-60
2022/09/19 06:10:39;;;;;;;11.20;2.65;;;14.70;99.90;;;;;;5031916;28;20076;-61
2022/09/19 06:13:06;;;;;;;19.00;2.38;;;14.90;99.90;;;;;;5032516;28;20050;-62
2022/09/19 06:15:33;;;;;;;14.57;2.75;;;14.70;99.90;;;;;;5032390;28;20037;-62
2022/09/19 06:17:59;;;;;;;12.95;2.50;;;15.00;99.90;;;;;;5031917;28;20034;-62
2022/09/19 06:20:25;;;;;;;12.07;2.45;;;14.90;1.00;;;;;;5030268;28;20148;-62
2022/09/19 06:23:02;;;;;;;12.98;2.42;;;15.00;99.90;;;;;;5031854;28;20087;-62
2022/09/19 06:25:28;;;;;;;14.52;2.85;;;15.20;99.90;;;;;;5031497;28;20048;-62
2022/09/19 06:27:59;;;;;;;16.90;2.90;;;15.30;98.10;;;;;;5014380;28;20053;-62
2022/09/19 06:30:26;;;;;;;14.10;2.58;;;15.10;1.00;;;;;;5030629;28;20719;-62
2022/09/19 06:32:52;;;;;;;16.52;2.70;;;15.10;61.90;;;;;;5028995;28;20044;-62
2022/09/19 06:35:22;;;;;;;12.20;2.50;;;15.30;59.20;;;;;;5032043;28;20116;-62
2022/09/19 06:37:48;;;;;;;12.68;3.17;;;15.40;93.50;;;;;;5031797;28;20037;-62
2022/09/19 06:40:20;;;;;;;11.77;2.25;;;15.30;99.90;;;;;;5031530;28;20391;-62
2022/09/19 06:42:46;;;;;;;10.48;2.00;;;15.10;1.00;;;;;;5031936;28;20033;-62
2022/09/19 06:45:11;;;;;;;10.63;1.98;;;15.40;1.00;;;;;;5030814;28;20442;-62
2022/09/19 06:47:37;;;;;;;11.13;2.33;;;15.40;1.00;;;;;;5029687;28;20124;-62
2022/09/19 06:50:03;;;;;;;12.63;3.15;;;15.60;1.00;;;;;;5031703;28;20049;-62
2022/09/19 06:52:29;;;;;;;9.75;1.98;;;15.50;99.90;;;;;;5031451;28;20403;-62
2022/09/19 06:54:55;;;;;;;12.80;2.25;;;15.40;1.00;;;;;;5031992;28;20033;-62
2022/09/19 06:57:21;;;;;;;12.55;2.40;;;15.60;17.90;;;;;;5030057;28;20037;-62
2022/09/19 06:59:47;;;;;;;11.68;2.25;;;15.40;99.90;;;;;;5031118;28;20588;-62
2022/09/19 07:02:13;;;;;;;14.30;2.22;;;15.80;1.00;;;;;;5029966;28;20041;-62
2022/09/19 07:04:39;;;;;;;9.07;1.92;;;15.60;47.70;;;;;;5013459;28;20116;-62
2022/09/19 07:07:05;;;;;;;10.85;2.15;;;15.60;1.00;;;;;;5031376;28;20160;-62
2022/09/19 07:09:31;;;;;;;12.90;2.10;;;15.50;99.90;;;;;;5030171;28;20037;-62
2022/09/19 07:11:57;;;;;;;14.05;2.00;;;15.50;1.00;;;;;;5029859;28;20110;-63
2022/09/19 07:14:23;;;;;;;17.48;2.35;;;15.50;91.30;;;;;;5031421;28;20037;-62
2022/09/19 07:16:49;;;;;;;9.38;2.13;;;15.60;1.00;;;;;;5031272;28;20038;-61
2022/09/19 07:19:15;;;;;;;12.82;2.08;;;15.70;1.00;;;;;;5030693;28;20436;-65
2022/09/19 07:21:41;;;;;;;14.88;2.20;;;15.70;1.00;;;;;;5030682;28;20635;-64
2022/09/19 07:24:07;;;;;;;12.00;2.72;;;15.80;1.00;;;;;;5030832;28;20495;-63
2022/09/19 07:26:33;;;;;;;13.98;2.65;;;15.80;1.00;;;;;;5030384;28;20060;-64
2022/09/19 07:28:58;;;;;;;18.17;2.75;;;15.80;1.00;;;;;;5030927;28;20045;-65
2022/09/19 07:31:26;;;;;;;12.93;2.20;;;15.90;1.00;;;;;;5031070;28;20034;-64
2022/09/19 07:33:53;;;;;;;17.63;2.53;;;16.00;74.30;;;;;;5031371;28;20095;-64
2022/09/19 07:36:21;;;;;;;9.70;2.38;;;16.10;99.90;;;;;;5031058;28;20037;-64
2022/09/19 07:38:48;;;;;;;9.73;2.10;;;16.10;21.40;;;;;;5030874;28;20462;-64
2022/09/19 07:41:15;;;;;;;16.10;2.42;;;16.10;23.40;;;;;;5030832;28;20049;-64
2022/09/19 07:43:40;;;;;;;11.32;2.00;;;16.10;99.90;;;;;;5031147;28;20033;-64
2022/09/19 07:46:06;;;;;;;16.92;3.13;;;16.10;86.90;;;;;;5030943;28;20049;-65
2022/09/19 07:48:31;;;;;;;12.02;2.15;;;16.30;20.90;;;;;;5028812;28;20061;-64
2022/09/19 07:50:57;;;;;;;19.77;2.42;;;16.30;86.50;;;;;;5030817;28;20033;-64
2022/09/19 07:53:23;;;;;;;14.52;2.80;;;16.30;99.90;;;;;;5030678;28;20041;-64
2022/09/19 07:55:53;;;;;;;14.05;2.45;;;16.40;99.90;;;;;;5029521;28;20372;-65
2022/09/19 07:58:20;;;;;;;16.80;2.50;;;16.40;99.90;;;;;;5019582;28;20505;-64
2022/09/19 08:00:46;;;;;;;16.40;2.47;;;16.90;1.00;;;;;;5030258;28;20044;-65
2022/09/19 08:03:15;;;;;;;13.48;2.72;;;17.30;99.90;;;;;;5031018;28;20491;-65
2022/09/19 08:05:43;;;;;;;12.23;2.47;;;17.30;99.20;;;;;;5030953;28;20044;-65
2022/09/19 08:08:10;;;;;;;15.00;2.85;;;17.30;1.00;;;;;;5030073;28;20052;-65
2022/09/19 08:10:38;;;;;;;11.88;2.33;;;17.60;1.00;;;;;;5030340;28;20064;-65
2022/09/19 08:13:05;;;;;;;10.60;2.63;;;17.70;99.90;;;;;;5031012;28;20045;-65
2022/09/19 08:15:34;;;;;;;11.98;2.28;;;17.80;1.00;;;;;;5030502;28;20095;-65
2022/09/19 08:18:01;;;;;;;14.70;2.60;;;17.80;99.90;;;;;;5030288;28;20099;-65
2022/09/19 08:20:32;;;;;;;20.85;2.95;;;17.90;99.90;;;;;;5030610;28;20029;-65
2022/09/19 08:23:06;;;;;;;16.38;2.60;;;18.00;57.50;;;;;;5016039;28;20033;-65
2022/09/19 08:25:34;;;;;;;13.35;2.40;;;18.00;1.00;;;;;;5033971;28;20120;-65
2022/09/19 08:28:00;;;;;;;11.38;2.25;;;18.10;25.50;;;;;;5034524;28;20527;-65
2022/09/19 08:30:29;;;;;;;17.80;3.08;;;18.10;47.00;;;;;;5034201;28;20171;-65
2022/09/19 08:32:56;;;;;;;14.02;2.60;;;19.40;8.10;;;;;;5016817;28;20518;-65
2022/09/19 08:35:23;;;;;;;13.45;2.53;;;18.00;99.90;;;;;;5033948;28;20625;-65
2022/09/19 08:37:54;;;;;;;13.45;2.53;;;17.80;1.00;;;;;;5034565;28;20171;-65
2022/09/19 08:40:26;;;;;;;11.70;2.60;;;17.70;1.00;;;;;;5032928;28;20230;-65
2022/09/19 08:43:18;;;;;;;14.93;2.40;;;17.90;1.00;;;;;;5034118;28;20049;-65
2022/09/19 08:46:14;;;;;;;14.88;2.72;;;18.30;1.00;;;;;;5033915;28;20041;-65
2022/09/19 08:48:53;;;;;;;17.10;2.50;;;18.40;99.90;;;;;;5033641;28;20091;-65
2022/09/19 08:51:29;;;;;;;13.95;2.80;;;18.10;99.90;;;;;;5034148;28;20037;-65
2022/09/19 08:54:03;;;;;;;10.88;2.72;;;17.70;99.90;;;;;;5033810;28;20120;-65
2022/09/19 08:56:30;;;;;;;15.10;2.80;;;17.50;99.90;;;;;;5033350;28;20038;-64
2022/09/19 08:59:01;;;;;;;11.77;2.67;;;17.20;1.00;;;;;;5031852;28;20033;-65
2022/09/19 09:01:31;;;;;;;9.50;2.20;;;17.20;56.10;;;;;;5033870;28;20107;-65
2022/09/19 09:04:07;;;;;;;13.63;2.72;;;17.40;99.90;;;;;;5034101;28;20056;-65
2022/09/19 09:06:51;;;;;;;13.73;2.78;;;17.50;1.00;;;;;;5033646;28;20051;-64
2022/09/19 09:09:42;;;;;;;19.30;3.13;;;17.20;1.00;;;;;;5016306;28;20077;-65
2022/09/19 09:12:26;;;;;;;17.02;2.70;;;17.10;57.60;;;;;;5005864;28;20587;-65
2022/09/19 09:15:01;;;;;;;15.88;2.60;;;17.00;99.90;;;;;;4996240;28;20054;-65
2022/09/19 09:17:48;;;;;;;19.90;3.13;;;17.10;99.90;;;;;;5031836;28;20033;-65
2022/09/19 09:20:58;;;;;;;18.48;2.75;;;17.40;1.00;;;;;;5033582;28;20066;-65
2022/09/19 09:23:35;;;;;;;15.52;2.72;;;17.50;99.90;;;;;;4979403;28;20051;-65
2022/09/19 09:26:24;;;;;;;11.23;2.20;;;16.90;99.90;;;;;;5033087;28;20095;-65
2022/09/19 09:28:55;;;;;;;14.90;2.83;;;16.60;99.90;;;;;;5033216;28;20091;-65
2022/09/19 09:31:38;;;;;;;16.58;2.92;;;16.70;1.00;;;;;;5032823;28;20049;-65
2022/09/19 09:34:11;;;;;;;17.50;3.42;;;16.80;99.90;;;;;;5032437;28;20037;-64
2022/09/19 09:36:47;;;;;;;16.33;3.38;;;16.60;1.00;;;;;;5033058;28;20037;-65
2022/09/19 09:39:21;;;;;;;12.13;2.60;;;16.90;1.00;;;;;;5033427;28;20043;-65
2022/09/19 09:41:56;;;;;;;11.98;2.58;;;17.00;27.70;;;;;;5032995;28;20056;-65
2022/09/19 09:44:40;;;;;;;15.65;3.25;;;17.00;99.90;;;;;;5032932;28;20068;-65
2022/09/19 09:47:24;;;;;;;17.02;3.00;;;16.90;99.90;;;;;;5032804;28;20041;-65
2022/09/19 09:49:53;;;;;;;11.60;2.70;;;16.40;41.10;;;;;;5032774;28;20045;-64
2022/09/19 09:52:44;;;;;;;8.23;2.22;;;15.90;1.00;;;;;;5032925;28;20514;-65
2022/09/19 09:58:47;;;;;;;19.77;2.70;;;15.70;99.90;;;;;;5030416;28;20053;-64
2022/09/19 10:04:29;;;;;;;20.52;3.55;;;14.90;99.90;;;;;;5020852;28;20306;-64
2022/09/19 10:07:21;;;;;;;20.13;3.05;;;15.10;99.90;;;;;;5032326;28;20051;-64
2022/09/19 10:10:08;;;;;;;16.58;2.50;;;14.50;99.90;;;;;;5031104;28;20052;-64
2022/09/19 10:12:45;;;;;;;16.38;2.97;;;14.60;99.90;;;;;;5032003;28;20089;-63
2022/09/19 10:15:19;;;;;;;24.42;2.92;;;14.80;99.90;;;;;;5032426;28;20076;-64
2022/09/19 10:17:49;;;;;;;14.57;2.80;;;15.70;99.90;;;;;;5025357;28;20123;-63
2022/09/19 10:20:34;;;;;;;8.90;2.03;;;15.30;99.90;;;;;;5032261;28;20535;-63
2022/09/19 10:23:00;;;;;;;13.10;2.50;;;15.60;99.90;;;;;;4995382;28;20049;-64
2022/09/19 10:25:26;;;;;;;13.85;2.15;;;16.40;99.90;;;;;;5014034;28;20616;-64
2022/09/19 10:27:52;;;;;;;12.73;2.45;;;16.60;99.90;;;;;;5031914;28;20073;-64
2022/09/19 10:30:25;;;;;;;14.43;2.20;;;16.50;99.90;;;;;;5031886;28;20041;-64
2022/09/19 10:32:51;;;;;;;15.95;3.13;;;16.00;99.90;;;;;;5030930;28;20080;-63
2022/09/19 10:35:32;;;;;;;18.00;3.30;;;16.50;99.90;;;;;;5031157;28;20041;-63
2022/09/19 10:38:13;;;;;;;12.00;2.10;;;16.40;99.90;;;;;;5014306;28;20041;-64
2022/09/19 10:40:53;;;;;;;17.60;3.47;;;16.30;99.90;;;;;;5013986;28;20037;-64
2022/09/19 10:43:46;;;;;;;16.52;3.15;;;16.30;99.90;;;;;;5032033;28;20094;-64
2022/09/19 10:46:18;;;;;;;14.52;2.85;;;16.20;99.90;;;;;;5024844;28;20057;-64
2022/09/19 10:48:56;;;;;;;19.05;3.95;;;16.70;99.90;;;;;;5026189;28;20045;-64
2022/09/19 10:51:29;;;;;;;13.10;2.25;;;16.10;99.90;;;;;;5031778;28;20053;-64
2022/09/19 10:53:56;;;;;;;11.20;2.30;;;16.30;99.90;;;;;;5029950;28;20033;-64
2022/09/19 10:56:28;;;;;;;19.02;2.97;;;16.70;99.90;;;;;;5031166;28;20042;-64
2022/09/19 10:59:01;;;;;;;22.42;2.95;;;16.20;99.90;;;;;;5030561;28;20506;-64
2022/09/19 11:01:27;;;;;;;12.90;2.20;;;16.60;99.90;;;;;;5030839;28;20037;-64
2022/09/19 11:04:26;;;;;;;17.33;2.50;;;16.50;99.90;;;;;;5031845;28;20053;-64
2022/09/19 11:07:02;;;;;;;13.80;2.85;;;16.50;99.90;;;;;;4997629;28;20060;-64
2022/09/19 11:09:33;;;;;;;25.40;3.17;;;16.30;99.90;;;;;;5031568;28;20052;-64
2022/09/19 11:12:10;;;;;;;15.90;2.80;;;16.10;99.90;;;;;;5030895;28;20141;-64
2022/09/19 11:14:39;;;;;;;18.85;3.20;;;16.40;99.90;;;;;;5031600;28;20064;-64
2022/09/19 11:17:29;;;;;;;20.00;3.65;;;16.00;99.90;;;;;;5031069;28;20041;-64
2022/09/19 11:20:31;;;;;;;15.80;2.70;;;16.40;99.90;;;;;;5031394;28;20547;-64
2022/09/19 11:23:18;;;;;;;11.43;2.35;;;16.60;99.90;;;;;;5013149;28;20041;-64
2022/09/19 11:25:49;;;;;;;10.38;2.63;;;16.90;99.90;;;;;;5015331;28;20649;-64
2022/09/19 11:28:29;;;;;;;14.57;2.47;;;17.00;99.90;;;;;;5031093;28;20037;-64
2022/09/19 11:31:11;;;;;;;12.60;2.35;;;17.00;99.90;;;;;;5031143;28;20080;-64
2022/09/19 11:34:04;;;;;;;11.15;2.08;;;17.10;99.90;;;;;;5031362;28;20060;-64
2022/09/19 11:36:36;;;;;;;15.10;2.70;;;17.00;99.90;;;;;;5031023;28;20049;-64
2022/09/19 11:39:35;;;;;;;11.30;2.83;;;16.90;99.90;;;;;;5030849;28;20046;-64
2022/09/19 11:42:12;;;;;;;11.85;2.33;;;16.90;99.90;;;;;;5020718;28;20133;-64
2022/09/19 11:44:56;;;;;;;15.40;2.55;;;16.60;70.20;;;;;;5031259;28;20038;-64
2022/09/19 11:47:50;;;;;;;8.98;2.28;;;16.80;1.00;;;;;;5030518;28;20060;-64
2022/09/19 11:50:46;;;;;;;14.25;2.10;;;16.70;1.00;;;;;;5030954;28;20077;-64
2022/09/19 11:53:36;;;;;;;9.52;2.13;;;16.40;99.90;;;;;;5031114;28;20099;-64
2022/09/19 11:56:23;;;;;;;13.05;2.40;;;16.30;99.90;;;;;;5030956;28;20042;-64
2022/09/19 11:59:03;;;;;;;11.98;2.05;;;16.70;70.10;;;;;;5032475;28;20056;-63
2022/09/19 12:02:20;;;;;;;16.30;2.20;;;16.50;99.90;;;;;;5033825;28;20176;-64
2022/09/19 12:05:18;;;;;;;18.70;3.23;;;16.80;99.90;;;;;;5034771;28;20125;-64
2022/09/19 12:08:22;;;;;;;12.13;2.22;;;16.80;1.00;;;;;;5023974;28;20326;-64
2022/09/19 12:10:54;;;;;;;10.88;2.30;;;17.00;99.90;;;;;;5034650;28;20054;-63
2022/09/19 12:13:48;;;;;;;11.38;2.30;;;16.80;99.90;;;;;;5035138;28;20077;-64
2022/09/19 12:16:35;;;;;;;12.55;2.38;;;16.80;99.90;;;;;;5033196;28;20121;-64
2022/09/19 12:19:07;;;;;;;13.80;2.67;;;16.70;1.00;;;;;;5049131;28;20033;-64
2022/09/19 12:21:39;;;;;;;15.30;2.65;;;16.80;1.00;;;;;;5044077;28;20037;-64
2022/09/19 12:27:12;;;;;;;16.30;2.78;;;16.60;99.90;;;;;;5032129;28;20503;-64
2022/09/19 12:29:49;;;;;;;15.02;2.72;;;16.60;96.10;;;;;;5028473;28;20095;-64
2022/09/19 12:32:25;;;;;;;22.00;3.38;;;16.80;1.00;;;;;;5030834;28;20502;-64
2022/09/19 12:34:59;;;;;;;19.05;3.42;;;16.70;1.00;;;;;;5034379;28;20038;-64
2022/09/19 12:37:37;;;;;;;18.40;3.42;;;16.80;99.90;;;;;;5033844;28;20038;-64
2022/09/19 12:40:39;;;;;;;16.85;3.22;;;16.80;99.90;;;;;;5034378;28;20088;-64
2022/09/19 12:43:26;;;;;;;17.27;3.17;;;17.10;85.60;;;;;;5034528;28;20041;-64
2022/09/19 12:46:19;;;;;;;14.90;3.30;;;16.90;99.90;;;;;;5032586;28;20057;-64
2022/09/19 12:49:01;;;;;;;13.73;3.00;;;17.10;99.90;;;;;;5033927;28;20120;-70
2022/09/19 12:51:46;;;;;;;16.48;2.65;;;17.10;99.90;;;;;;5016130;28;20041;-67
2022/09/19 12:54:25;;;;;;;15.40;2.13;;;17.00;99.90;;;;;;5016353;28;20124;-64
2022/09/19 12:57:20;;;;;;;8.68;2.33;;;17.10;99.90;;;;;;5016118;28;20048;-64
2022/09/19 12:59:47;;;;;;;12.70;2.38;;;17.10;99.90;;;;;;5014111;28;20041;-64
2022/09/19 13:02:28;;;;;;;20.27;3.00;;;17.10;99.90;;;;;;5032985;28;20541;-64
2022/09/19 13:05:21;;;;;;;7.75;2.13;;;17.10;99.90;;;;;;5033625;28;20037;-64
2022/09/19 13:07:53;;;;;;;15.02;2.42;;;17.10;99.90;;;;;;5033496;28;20044;-64
2022/09/19 13:10:28;;;;;;;9.40;1.95;;;17.20;99.90;;;;;;5033275;28;20041;-64
2022/09/19 13:12:59;;;;;;;11.80;2.25;;;17.10;10.30;;;;;;5032164;28;20084;-64
2022/09/19 13:15:30;;;;;;;11.70;2.13;;;17.20;1.00;;;;;;5033401;28;20073;-64
2022/09/19 13:23:32;;;;;;;22.90;3.40;;;17.20;99.90;;;;;;5025665;28;20307;-64
2022/09/19 13:26:00;;;;;;;13.80;2.50;;;17.10;87.40;;;;;;5029659;28;20109;-64
2022/09/19 13:28:32;;;;;;;11.48;2.28;;;17.00;34.50;;;;;;5033695;28;20103;-64
2022/09/19 13:31:04;;;;;;;10.68;2.00;;;17.00;1.00;;;;;;5027181;28;20096;-64
2022/09/19 13:33:52;;;;;;;18.15;2.88;;;17.00;1.00;;;;;;5014073;28;20048;-64
2022/09/19 13:36:37;;;;;;;14.95;2.72;;;17.00;1.00;;;;;;5032142;28;20041;-64